sensor_id;sensor_type;location;lat;lon;timestamp;pressure;altitude;pressure_sealevel;temperature;humidity
63568;BME280;49715;42.386;20.434;2023-01-04T00:02:12;98629.72;;;3.70;74.62
63568;BME280;49715;42.386;20.434;2023-01-04T00:04:38;98633.94;;;3.73;74.79
63568;BME280;49715;42.386;20.434;2023-01-04T00:07:04;98640.75;;;3.75;74.48
63568;BME280;49715;42.386;20.434;2023-01-04T00:09:31;98629.09;;;3.65;74.30
63568;BME280;49715;42.386;20.434;2023-01-04T00:11:57;98647.81;;;3.73;74.75
63568;BME280;49715;42.386;20.434;2023-01-04T00:14:23;98640.16;;;3.70;74.85
63568;BME280;49715;42.386;20.434;2023-01-04T00:16:50;98643.59;;;3.71;74.79
63568;BME280;49715;42.386;20.434;2023-01-04T00:19:16;98656.47;;;3.74;74.74
63568;BME280;49715;42.386;20.434;2023-01-04T00:21:42;98648.81;;;3.71;74.69
63568;BME280;49715;42.386;20.434;2023-01-04T00:24:09;98641.16;;;3.68;74.86
63568;BME280;49715;42.386;20.434;2023-01-04T00:26:35;98647.97;;;3.70;74.86
63568;BME280;49715;42.386;20.434;2023-01-04T00:29:05;98643.84;;;3.66;74.78
63568;BME280;49715;42.386;20.434;2023-01-04T00:31:33;98648.19;;;3.66;74.75
63568;BME280;49715;42.386;20.434;2023-01-04T00:34:02;98647.44;;;3.64;74.63
63568;BME280;49715;42.386;20.434;2023-01-04T00:36:29;98648.28;;;3.64;74.64
63568;BME280;49715;42.386;20.434;2023-01-04T00:38:58;98649.31;;;3.61;74.68
63568;BME280;49715;42.386;20.434;2023-01-04T00:41:47;98655.41;;;3.60;74.56
63568;BME280;49715;42.386;20.434;2023-01-04T00:44:15;98664.84;;;3.63;74.68
63568;BME280;49715;42.386;20.434;2023-01-04T00:46:43;98657.88;;;3.64;74.71
63568;BME280;49715;42.386;20.434;2023-01-04T00:49:10;98656.72;;;3.69;74.62
63568;BME280;49715;42.386;20.434;2023-01-04T00:51:38;98657.78;;;3.65;74.66
63568;BME280;49715;42.386;20.434;2023-01-04T00:54:07;98660.41;;;3.65;74.36
63568;BME280;49715;42.386;20.434;2023-01-04T00:56:37;98658.84;;;3.61;74.38
63568;BME280;49715;42.386;20.434;2023-01-04T00:59:04;98656.03;;;3.48;74.36
63568;BME280;49715;42.386;20.434;2023-01-04T01:01:32;98675.25;;;3.46;74.37
63568;BME280;49715;42.386;20.434;2023-01-04T01:04:01;98665.38;;;3.35;74.66
63568;BME280;49715;42.386;20.434;2023-01-04T01:06:30;98673.81;;;3.40;74.80
63568;BME280;49715;42.386;20.434;2023-01-04T01:08:57;98680.69;;;3.41;74.90
63568;BME280;49715;42.386;20.434;2023-01-04T01:11:24;98669.38;;;3.42;74.94
63568;BME280;49715;42.386;20.434;2023-01-04T01:13:51;98671.19;;;3.40;74.68
63568;BME280;49715;42.386;20.434;2023-01-04T01:16:22;98678.78;;;3.45;74.99
63568;BME280;49715;42.386;20.434;2023-01-04T01:18:50;98672.75;;;3.44;74.88
63568;BME280;49715;42.386;20.434;2023-01-04T01:21:28;98668.78;;;3.37;74.94
63568;BME280;49715;42.386;20.434;2023-01-04T01:24:00;98661.94;;;3.34;74.88
63568;BME280;49715;42.386;20.434;2023-01-04T01:26:28;98671.38;;;3.37;74.86
63568;BME280;49715;42.386;20.434;2023-01-04T01:28:54;98669.38;;;3.42;74.91
63568;BME280;49715;42.386;20.434;2023-01-04T01:31:23;98665.75;;;3.45;74.81
63568;BME280;49715;42.386;20.434;2023-01-04T01:33:51;98675.22;;;3.47;74.60
63568;BME280;49715;42.386;20.434;2023-01-04T01:36:19;98667.31;;;3.49;74.55
63568;BME280;49715;42.386;20.434;2023-01-04T01:38:47;98653.66;;;3.44;74.49
63568;BME280;49715;42.386;20.434;2023-01-04T01:43:50;98662.22;;;3.46;74.13
63568;BME280;49715;42.386;20.434;2023-01-04T01:46:39;98653.81;;;3.41;74.22
63568;BME280;49715;42.386;20.434;2023-01-04T01:51:42;98651.28;;;3.39;74.30
63568;BME280;49715;42.386;20.434;2023-01-04T01:54:16;98657.25;;;3.41;74.56
63568;BME280;49715;42.386;20.434;2023-01-04T01:56:47;98660.72;;;3.42;74.43
63568;BME280;49715;42.386;20.434;2023-01-04T01:59:16;98662.41;;;3.43;74.28
63568;BME280;49715;42.386;20.434;2023-01-04T02:01:43;98662.78;;;3.35;74.26
63568;BME280;49715;42.386;20.434;2023-01-04T02:04:10;98660.06;;;3.36;74.13
63568;BME280;49715;42.386;20.434;2023-01-04T02:06:40;98661.22;;;3.31;73.96
63568;BME280;49715;42.386;20.434;2023-01-04T02:09:08;98656.47;;;3.22;74.24
63568;BME280;49715;42.386;20.434;2023-01-04T02:11:35;98653.81;;;3.23;74.53
63568;BME280;49715;42.386;20.434;2023-01-04T02:14:02;98657.34;;;3.22;74.35
63568;BME280;49715;42.386;20.434;2023-01-04T02:19:59;98654.41;;;3.28;74.41
63568;BME280;49715;42.386;20.434;2023-01-04T02:37:26;98663.00;;;3.30;74.39
63568;BME280;49715;42.386;20.434;2023-01-04T02:39:48;98660.38;;;3.30;74.21
63568;BME280;49715;42.386;20.434;2023-01-04T02:42:43;98654.34;;;3.30;74.16
63568;BME280;49715;42.386;20.434;2023-01-04T02:45:38;98655.13;;;3.32;74.18
63568;BME280;49715;42.386;20.434;2023-01-04T02:48:07;98642.31;;;3.27;74.34
63568;BME280;49715;42.386;20.434;2023-01-04T02:50:54;98649.97;;;3.30;74.52
63568;BME280;49715;42.386;20.434;2023-01-04T02:53:36;98653.34;;;3.32;74.15
63568;BME280;49715;42.386;20.434;2023-01-04T02:56:11;98661.00;;;3.35;74.39
63568;BME280;49715;42.386;20.434;2023-01-04T03:10:53;98662.25;;;3.28;74.66
63568;BME280;49715;42.386;20.434;2023-01-04T03:13:43;98659.63;;;3.28;74.39
63568;BME280;49715;42.386;20.434;2023-01-04T03:16:19;98657.25;;;3.24;74.44
63568;BME280;49715;42.386;20.434;2023-01-04T03:18:50;98659.63;;;3.28;74.43
63568;BME280;49715;42.386;20.434;2023-01-04T03:21:22;98653.63;;;3.26;74.45
63568;BME280;49715;42.386;20.434;2023-01-04T03:23:51;98649.13;;;3.30;74.47
63568;BME280;49715;42.386;20.434;2023-01-04T03:26:43;98648.41;;;3.26;74.34
63568;BME280;49715;42.386;20.434;2023-01-04T03:29:53;98651.25;;;3.22;74.38
63568;BME280;49715;42.386;20.434;2023-01-04T03:32:54;98663.38;;;3.23;74.26
63568;BME280;49715;42.386;20.434;2023-01-04T03:35:56;98672.25;;;3.19;74.36
63568;BME280;49715;42.386;20.434;2023-01-04T03:38:34;98669.66;;;3.19;74.59
63568;BME280;49715;42.386;20.434;2023-01-04T03:41:49;98673.19;;;3.18;74.52
63568;BME280;49715;42.386;20.434;2023-01-04T03:45:18;98665.38;;;3.18;74.55
63568;BME280;49715;42.386;20.434;2023-01-04T03:48:14;98667.81;;;3.21;74.51
63568;BME280;49715;42.386;20.434;2023-01-04T03:53:48;98669.78;;;3.16;74.42
63568;BME280;49715;42.386;20.434;2023-01-04T03:56:16;98669.56;;;3.20;74.36
63568;BME280;49715;42.386;20.434;2023-01-04T03:58:44;98662.75;;;3.18;74.22
63568;BME280;49715;42.386;20.434;2023-01-04T04:01:11;98667.88;;;3.19;73.93
63568;BME280;49715;42.386;20.434;2023-01-04T04:03:38;98667.88;;;3.19;74.43
63568;BME280;49715;42.386;20.434;2023-01-04T04:06:23;98664.66;;;3.14;74.24
63568;BME280;49715;42.386;20.434;2023-01-04T04:09:08;98656.84;;;3.14;74.24
63568;BME280;49715;42.386;20.434;2023-01-04T04:11:34;98662.38;;;3.08;74.16
63568;BME280;49715;42.386;20.434;2023-01-04T04:14:01;98666.66;;;3.09;74.38
63568;BME280;49715;42.386;20.434;2023-01-04T04:16:27;98653.00;;;3.04;74.44
63568;BME280;49715;42.386;20.434;2023-01-04T04:18:54;98663.34;;;3.05;74.38
63568;BME280;49715;42.386;20.434;2023-01-04T04:21:21;98664.34;;;3.03;74.27
63568;BME280;49715;42.386;20.434;2023-01-04T04:23:48;98670.63;;;2.99;74.13
63568;BME280;49715;42.386;20.434;2023-01-04T04:26:14;98657.94;;;2.91;74.44
63568;BME280;49715;42.386;20.434;2023-01-04T04:28:41;98667.59;;;2.89;74.34
63568;BME280;49715;42.386;20.434;2023-01-04T04:31:08;98655.72;;;2.83;74.39
63568;BME280;49715;42.386;20.434;2023-01-04T04:33:35;98651.47;;;2.81;74.65
63568;BME280;49715;42.386;20.434;2023-01-04T04:36:01;98649.72;;;2.81;74.64
63568;BME280;49715;42.386;20.434;2023-01-04T04:38:27;98649.63;;;2.83;74.66
63568;BME280;49715;42.386;20.434;2023-01-04T04:40:54;98651.41;;;2.82;74.67
63568;BME280;49715;42.386;20.434;2023-01-04T04:43:38;98658.25;;;2.85;74.56
63568;BME280;49715;42.386;20.434;2023-01-04T04:46:05;98666.13;;;2.83;74.71
63568;BME280;49715;42.386;20.434;2023-01-04T04:48:32;98646.56;;;2.75;74.55
63568;BME280;49715;42.386;20.434;2023-01-04T04:50:58;98647.56;;;2.72;74.68
63568;BME280;49715;42.386;20.434;2023-01-04T04:53:24;98647.63;;;2.71;74.83
63568;BME280;49715;42.386;20.434;2023-01-04T04:55:52;98663.03;;;2.75;74.71
63568;BME280;49715;42.386;20.434;2023-01-04T04:58:19;98657.00;;;2.75;74.69
63568;BME280;49715;42.386;20.434;2023-01-04T05:00:45;98647.63;;;2.71;74.66
63568;BME280;49715;42.386;20.434;2023-01-04T05:03:12;98661.41;;;2.73;74.74
63568;BME280;49715;42.386;20.434;2023-01-04T05:05:38;98662.19;;;2.75;74.65
63568;BME280;49715;42.386;20.434;2023-01-04T05:08:04;98669.09;;;2.76;74.70
63568;BME280;49715;42.386;20.434;2023-01-04T05:10:31;98663.88;;;2.76;74.55
63568;BME280;49715;42.386;20.434;2023-01-04T05:12:57;98658.66;;;2.76;74.57
63568;BME280;49715;42.386;20.434;2023-01-04T05:15:33;98667.94;;;2.81;74.49
63568;BME280;49715;42.386;20.434;2023-01-04T05:18:00;98675.84;;;2.80;74.61
63568;BME280;49715;42.386;20.434;2023-01-04T05:20:27;98676.75;;;2.79;74.68
63568;BME280;49715;42.386;20.434;2023-01-04T05:22:53;98672.63;;;2.75;74.50
63568;BME280;49715;42.386;20.434;2023-01-04T05:25:20;98674.38;;;2.74;74.65
63568;BME280;49715;42.386;20.434;2023-01-04T05:27:46;98688.03;;;2.79;74.71
63568;BME280;49715;42.386;20.434;2023-01-04T05:30:14;98694.91;;;2.80;74.60
63568;BME280;49715;42.386;20.434;2023-01-04T05:33:00;98688.16;;;2.76;74.35
63568;BME280;49715;42.386;20.434;2023-01-04T05:35:27;98683.56;;;2.81;74.65
63568;BME280;49715;42.386;20.434;2023-01-04T05:37:54;98688.03;;;2.79;74.63
63568;BME280;49715;42.386;20.434;2023-01-04T05:40:21;98683.66;;;2.80;74.57
63568;BME280;49715;42.386;20.434;2023-01-04T05:42:47;98681.81;;;2.82;74.61
63568;BME280;49715;42.386;20.434;2023-01-04T05:45:15;98675.94;;;2.78;74.61
63568;BME280;49715;42.386;20.434;2023-01-04T05:47:41;98681.88;;;2.80;74.54
63568;BME280;49715;42.386;20.434;2023-01-04T05:50:09;98682.81;;;2.79;74.38
63568;BME280;49715;42.386;20.434;2023-01-04T05:52:36;98695.53;;;2.86;74.33
63568;BME280;49715;42.386;20.434;2023-01-04T05:55:02;98695.66;;;2.82;74.36
63568;BME280;49715;42.386;20.434;2023-01-04T05:57:29;98693.16;;;2.81;74.28
63568;BME280;49715;42.386;20.434;2023-01-04T05:59:55;98689.69;;;2.80;74.39
63568;BME280;49715;42.386;20.434;2023-01-04T06:02:24;98688.69;;;2.83;74.25
63568;BME280;49715;42.386;20.434;2023-01-04T06:04:51;98681.13;;;2.78;74.23
63568;BME280;49715;42.386;20.434;2023-01-04T06:07:17;98690.53;;;2.81;74.09
63568;BME280;49715;42.386;20.434;2023-01-04T06:09:44;98693.22;;;2.79;74.18
63568;BME280;49715;42.386;20.434;2023-01-04T06:12:11;98702.72;;;2.80;74.09
63568;BME280;49715;42.386;20.434;2023-01-04T06:14:37;98700.03;;;2.82;74.07
63568;BME280;49715;42.386;20.434;2023-01-04T06:17:04;98699.13;;;2.83;74.00
63568;BME280;49715;42.386;20.434;2023-01-04T06:19:31;98699.97;;;2.83;74.08
63568;BME280;49715;42.386;20.434;2023-01-04T06:21:57;98704.28;;;2.84;73.87
63568;BME280;49715;42.386;20.434;2023-01-04T06:24:23;98700.75;;;2.86;74.08
63568;BME280;49715;42.386;20.434;2023-01-04T06:26:50;98713.69;;;2.87;74.05
63568;BME280;49715;42.386;20.434;2023-01-04T06:29:16;98704.19;;;2.86;73.86
63568;BME280;49715;42.386;20.434;2023-01-04T06:31:43;98723.22;;;2.88;74.11
63568;BME280;49715;42.386;20.434;2023-01-04T06:34:11;98717.13;;;2.88;74.20
63568;BME280;49715;42.386;20.434;2023-01-04T06:36:38;98704.31;;;2.83;74.31
63568;BME280;49715;42.386;20.434;2023-01-04T06:39:04;98707.84;;;2.82;74.29
63568;BME280;49715;42.386;20.434;2023-01-04T06:41:31;98706.09;;;2.82;74.01
63568;BME280;49715;42.386;20.434;2023-01-04T06:43:58;98707.81;;;2.83;74.32
63568;BME280;49715;42.386;20.434;2023-01-04T06:46:25;98711.28;;;2.82;74.13
63568;BME280;49715;42.386;20.434;2023-01-04T06:48:52;98708.91;;;2.78;74.36
63568;BME280;49715;42.386;20.434;2023-01-04T06:51:19;98697.09;;;2.71;74.23
63568;BME280;49715;42.386;20.434;2023-01-04T06:53:46;98689.41;;;2.68;74.25
63568;BME280;49715;42.386;20.434;2023-01-04T06:56:15;98691.34;;;2.64;74.09
63568;BME280;49715;42.386;20.434;2023-01-04T06:58:42;98705.88;;;2.68;74.08
63568;BME280;49715;42.386;20.434;2023-01-04T07:01:10;98705.13;;;2.66;74.31
63568;BME280;49715;42.386;20.434;2023-01-04T07:03:37;98723.25;;;2.68;73.94
63568;BME280;49715;42.386;20.434;2023-01-04T07:06:05;98721.78;;;2.62;74.47
63568;BME280;49715;42.386;20.434;2023-01-04T07:08:33;98726.16;;;2.62;73.80
63568;BME280;49715;42.386;20.434;2023-01-04T07:11:07;98699.13;;;2.45;73.97
63568;BME280;49715;42.386;20.434;2023-01-04T07:13:33;98723.53;;;2.62;73.87
63568;BME280;49715;42.386;20.434;2023-01-04T07:16:10;98707.22;;;2.39;74.13
63568;BME280;49715;42.386;20.434;2023-01-04T07:18:36;98721.50;;;2.49;74.26
63568;BME280;49715;42.386;20.434;2023-01-04T07:21:06;98701.78;;;2.44;74.36
63568;BME280;49715;42.386;20.434;2023-01-04T07:23:33;98718.31;;;2.43;74.54
63568;BME280;49715;42.386;20.434;2023-01-04T07:26:03;98711.16;;;2.48;74.55
63568;BME280;49715;42.386;20.434;2023-01-04T07:28:36;98701.94;;;2.41;74.68
63568;BME280;49715;42.386;20.434;2023-01-04T07:31:23;98694.25;;;2.38;75.06
63568;BME280;49715;42.386;20.434;2023-01-04T07:33:50;98739.16;;;2.62;74.74
63568;BME280;49715;42.386;20.434;2023-01-04T07:36:17;98723.41;;;2.65;74.97
63568;BME280;49715;42.386;20.434;2023-01-04T07:38:43;98743.75;;;2.75;74.84
63568;BME280;49715;42.386;20.434;2023-01-04T07:41:10;98736.66;;;2.79;74.92
63568;BME280;49715;42.386;20.434;2023-01-04T07:43:39;98734.03;;;2.79;74.82
63568;BME280;49715;42.386;20.434;2023-01-04T07:46:06;98737.91;;;2.89;74.77
63568;BME280;49715;42.386;20.434;2023-01-04T07:48:33;98747.75;;;2.82;74.58
63568;BME280;49715;42.386;20.434;2023-01-04T07:51:01;98749.31;;;2.87;74.81
63568;BME280;49715;42.386;20.434;2023-01-04T07:53:31;98757.31;;;2.82;74.60
63568;BME280;49715;42.386;20.434;2023-01-04T07:55:59;98763.44;;;2.81;74.41
63568;BME280;49715;42.386;20.434;2023-01-04T07:58:29;98755.13;;;2.73;74.57
63568;BME280;49715;42.386;20.434;2023-01-04T08:01:12;98762.06;;;2.74;74.55
63568;BME280;49715;42.386;20.434;2023-01-04T08:03:39;98768.56;;;2.82;74.79
63568;BME280;49715;42.386;20.434;2023-01-04T08:06:14;98763.16;;;2.87;74.86
63568;BME280;49715;42.386;20.434;2023-01-04T08:08:46;98732.06;;;2.65;74.92
63568;BME280;49715;42.386;20.434;2023-01-04T08:11:16;98769.22;;;2.88;74.68
63568;BME280;49715;42.386;20.434;2023-01-04T08:13:43;98767.19;;;2.94;74.81
63568;BME280;49715;42.386;20.434;2023-01-04T08:16:33;98776.91;;;2.91;74.47
63568;BME280;49715;42.386;20.434;2023-01-04T08:19:19;98778.03;;;2.85;74.70
63568;BME280;49715;42.386;20.434;2023-01-04T08:21:47;98782.03;;;2.92;74.77
63568;BME280;49715;42.386;20.434;2023-01-04T08:24:16;98786.91;;;3.00;74.83
63568;BME280;49715;42.386;20.434;2023-01-04T08:26:44;98781.56;;;3.03;74.74
63568;BME280;49715;42.386;20.434;2023-01-04T08:29:11;98773.78;;;3.01;74.71
63568;BME280;49715;42.386;20.434;2023-01-04T08:31:47;98774.59;;;3.03;74.84
63568;BME280;49715;42.386;20.434;2023-01-04T08:34:16;98772.53;;;3.10;74.60
63568;BME280;49715;42.386;20.434;2023-01-04T08:36:47;98792.16;;;3.17;74.61
63568;BME280;49715;42.386;20.434;2023-01-04T08:39:17;98791.94;;;3.22;74.52
63568;BME280;49715;42.386;20.434;2023-01-04T08:42:01;98753.03;;;3.00;74.37
63568;BME280;49715;42.386;20.434;2023-01-04T08:44:32;98759.59;;;3.08;74.46
63568;BME280;49715;42.386;20.434;2023-01-04T08:47:03;98782.41;;;3.22;74.79
63568;BME280;49715;42.386;20.434;2023-01-04T08:49:30;98782.94;;;3.29;74.42
63568;BME280;49715;42.386;20.434;2023-01-04T08:51:57;98783.69;;;3.31;74.21
63568;BME280;49715;42.386;20.434;2023-01-04T08:54:23;98788.88;;;3.32;74.07
63568;BME280;49715;42.386;20.434;2023-01-04T08:56:50;98780.13;;;3.33;73.96
63568;BME280;49715;42.386;20.434;2023-01-04T08:59:17;98791.09;;;3.40;74.04
63568;BME280;49715;42.386;20.434;2023-01-04T09:01:43;98780.22;;;3.32;73.88
63568;BME280;49715;42.386;20.434;2023-01-04T09:04:11;98776.50;;;3.36;73.71
63568;BME280;49715;42.386;20.434;2023-01-04T09:06:37;98777.09;;;3.43;73.74
63568;BME280;49715;42.386;20.434;2023-01-04T09:09:04;98789.91;;;3.47;73.56
63568;BME280;49715;42.386;20.434;2023-01-04T09:11:33;98788.97;;;3.48;73.59
63568;BME280;49715;42.386;20.434;2023-01-04T09:14:00;98790.53;;;3.52;73.89
63568;BME280;49715;42.386;20.434;2023-01-04T09:16:28;98779.94;;;3.55;73.97
63568;BME280;49715;42.386;20.434;2023-01-04T09:18:55;98779.94;;;3.55;73.74
63568;BME280;49715;42.386;20.434;2023-01-04T09:21:22;98781.38;;;3.61;73.62
63568;BME280;49715;42.386;20.434;2023-01-04T09:23:48;98767.91;;;3.53;73.49
63568;BME280;49715;42.386;20.434;2023-01-04T09:26:17;98777.66;;;3.67;73.70
63568;BME280;49715;42.386;20.434;2023-01-04T09:28:47;98769.00;;;3.66;73.64
63568;BME280;49715;42.386;20.434;2023-01-04T09:31:33;98772.16;;;3.73;73.55
63568;BME280;49715;42.386;20.434;2023-01-04T09:34:00;98762.63;;;3.72;73.72
63568;BME280;49715;42.386;20.434;2023-01-04T09:36:26;98768.31;;;3.80;73.81
63568;BME280;49715;42.386;20.434;2023-01-04T09:38:54;98761.09;;;3.85;73.72
63568;BME280;49715;42.386;20.434;2023-01-04T09:43:57;98753.59;;;3.96;73.58
63568;BME280;49715;42.386;20.434;2023-01-04T09:52:03;98745.22;;;4.07;73.42
63568;BME280;49715;42.386;20.434;2023-01-04T09:54:56;98737.31;;;4.08;73.31
63568;BME280;49715;42.386;20.434;2023-01-04T09:57:32;98720.97;;;4.05;73.25
63568;BME280;49715;42.386;20.434;2023-01-04T10:00:28;98733.63;;;4.12;73.47
63568;BME280;49715;42.386;20.434;2023-01-04T10:03:22;98745.75;;;4.13;73.43
63568;BME280;49715;42.386;20.434;2023-01-04T10:05:55;98745.44;;;4.20;73.51
63568;BME280;49715;42.386;20.434;2023-01-04T10:08:26;98728.25;;;4.16;73.49
63568;BME280;49715;42.386;20.434;2023-01-04T10:16:58;98747.97;;;4.21;73.42
63568;BME280;49715;42.386;20.434;2023-01-04T10:22:54;98735.53;;;4.26;73.38
63568;BME280;49715;42.386;20.434;2023-01-04T10:25:41;98733.25;;;4.20;73.46
63568;BME280;49715;42.386;20.434;2023-01-04T10:33:47;98724.16;;;4.27;73.77
63568;BME280;49715;42.386;20.434;2023-01-04T10:36:23;98721.22;;;4.33;73.67
63568;BME280;49715;42.386;20.434;2023-01-04T10:39:02;98707.09;;;4.37;73.57
63568;BME280;49715;42.386;20.434;2023-01-04T10:41:39;98719.75;;;4.45;73.31
63568;BME280;49715;42.386;20.434;2023-01-04T10:46:55;98704.75;;;4.49;73.30
63568;BME280;49715;42.386;20.434;2023-01-04T10:52:00;98710.09;;;4.63;73.64
63568;BME280;49715;42.386;20.434;2023-01-04T10:54:38;98705.78;;;4.62;73.26
63568;BME280;49715;42.386;20.434;2023-01-04T10:57:32;98707.66;;;4.60;73.26
63568;BME280;49715;42.386;20.434;2023-01-04T11:05:50;98709.69;;;4.55;73.39
63568;BME280;49715;42.386;20.434;2023-01-04T11:08:33;98700.41;;;4.65;73.43
63568;BME280;49715;42.386;20.434;2023-01-04T11:11:15;98691.16;;;4.75;73.26
63568;BME280;49715;42.386;20.434;2023-01-04T11:13:43;98689.72;;;4.85;73.27
63568;BME280;49715;42.386;20.434;2023-01-04T11:16:10;98688.69;;;4.88;73.12
63568;BME280;49715;42.386;20.434;2023-01-04T11:18:41;98676.06;;;4.96;72.96
63568;BME280;49715;42.386;20.434;2023-01-04T11:21:11;98679.84;;;5.06;72.96
63568;BME280;49715;42.386;20.434;2023-01-04T11:23:39;98671.44;;;5.01;72.86
63568;BME280;49715;42.386;20.434;2023-01-04T11:26:17;98682.72;;;5.02;72.92
63568;BME280;49715;42.386;20.434;2023-01-04T11:28:50;98672.84;;;5.07;73.12
63568;BME280;49715;42.386;20.434;2023-01-04T11:33:59;98668.53;;;5.22;73.03
63568;BME280;49715;42.386;20.434;2023-01-04T11:38:57;98664.72;;;5.43;72.71
63568;BME280;49715;42.386;20.434;2023-01-04T11:41:24;98666.13;;;5.49;72.84
63568;BME280;49715;42.386;20.434;2023-01-04T11:44:05;98649.69;;;5.47;72.91
63568;BME280;49715;42.386;20.434;2023-01-04T11:47:07;98647.41;;;5.56;72.56
63568;BME280;49715;42.386;20.434;2023-01-04T11:49:36;98650.56;;;5.61;72.45
63568;BME280;49715;42.386;20.434;2023-01-04T11:52:04;98654.56;;;5.53;72.16
63568;BME280;49715;42.386;20.434;2023-01-04T11:54:33;98656.50;;;5.49;72.52
63568;BME280;49715;42.386;20.434;2023-01-04T11:57:19;98642.13;;;5.42;72.64
63568;BME280;49715;42.386;20.434;2023-01-04T12:00:09;98647.81;;;5.49;72.52
63568;BME280;49715;42.386;20.434;2023-01-04T12:02:42;98641.09;;;5.45;72.45
63568;BME280;49715;42.386;20.434;2023-01-04T12:05:18;98643.78;;;5.43;72.58
63568;BME280;49715;42.386;20.434;2023-01-04T12:07:49;98626.13;;;5.32;72.76
63568;BME280;49715;42.386;20.434;2023-01-04T12:10:22;98638.06;;;5.36;72.70
63568;BME280;49715;42.386;20.434;2023-01-04T12:12:54;98628.41;;;5.23;72.59
63568;BME280;49715;42.386;20.434;2023-01-04T12:15:38;98617.72;;;5.27;73.07
63568;BME280;49715;42.386;20.434;2023-01-04T12:18:15;98618.59;;;5.26;73.04
63568;BME280;49715;42.386;20.434;2023-01-04T12:20:51;98602.19;;;5.24;73.09
63568;BME280;49715;42.386;20.434;2023-01-04T12:23:19;98590.78;;;5.25;72.89
63568;BME280;49715;42.386;20.434;2023-01-04T12:25:49;98622.94;;;5.41;72.95
63568;BME280;49715;42.386;20.434;2023-01-04T12:28:37;98613.53;;;5.39;72.90
63568;BME280;49715;42.386;20.434;2023-01-04T12:39:43;98571.72;;;5.09;72.89
63568;BME280;49715;42.386;20.434;2023-01-04T12:42:18;98601.66;;;5.33;73.15
63568;BME280;49715;42.386;20.434;2023-01-04T12:50:06;98609.00;;;5.57;73.19
63568;BME280;49715;42.386;20.434;2023-01-04T12:52:44;98590.31;;;5.63;72.96
63568;BME280;49715;42.386;20.434;2023-01-04T13:06:02;98590.63;;;5.87;72.15
63568;BME280;49715;42.386;20.434;2023-01-04T13:08:39;98587.34;;;5.83;72.26
63568;BME280;49715;42.386;20.434;2023-01-04T13:11:44;98589.56;;;5.75;72.17
63568;BME280;49715;42.386;20.434;2023-01-04T13:14:38;98588.44;;;5.65;72.36
63568;BME280;49715;42.386;20.434;2023-01-04T13:17:14;98587.81;;;5.61;72.75
63568;BME280;49715;42.386;20.434;2023-01-04T13:19:42;98587.13;;;5.58;72.79
63568;BME280;49715;42.386;20.434;2023-01-04T13:22:19;98581.25;;;5.54;72.86
63568;BME280;49715;42.386;20.434;2023-01-04T13:24:49;98581.81;;;5.59;72.92
63568;BME280;49715;42.386;20.434;2023-01-04T13:27:21;98582.38;;;5.64;73.13
63568;BME280;49715;42.386;20.434;2023-01-04T13:29:50;98583.72;;;5.72;72.72
63568;BME280;49715;42.386;20.434;2023-01-04T13:32:21;98565.84;;;5.64;72.71
63568;BME280;49715;42.386;20.434;2023-01-04T13:34:56;98575.88;;;5.72;72.67
63568;BME280;49715;42.386;20.434;2023-01-04T13:37:44;98580.25;;;5.71;72.80
63568;BME280;49715;42.386;20.434;2023-01-04T13:40:27;98590.88;;;5.68;72.79
63568;BME280;49715;42.386;20.434;2023-01-04T13:48:23;98567.97;;;5.43;73.07
63568;BME280;49715;42.386;20.434;2023-01-04T13:51:12;98576.75;;;5.42;73.12
63568;BME280;49715;42.386;20.434;2023-01-04T13:53:49;98571.59;;;5.40;73.17
63568;BME280;49715;42.386;20.434;2023-01-04T13:56:22;98566.16;;;5.29;73.35
63568;BME280;49715;42.386;20.434;2023-01-04T13:58:52;98572.13;;;5.31;73.43
63568;BME280;49715;42.386;20.434;2023-01-04T14:04:05;98565.19;;;5.16;73.52
63568;BME280;49715;42.386;20.434;2023-01-04T14:06:40;98560.47;;;5.07;73.62
63568;BME280;49715;42.386;20.434;2023-01-04T14:11:40;98561.31;;;5.07;73.62
63568;BME280;49715;42.386;20.434;2023-01-04T14:17:25;98556.72;;;4.97;73.90
63568;BME280;49715;42.386;20.434;2023-01-04T14:19:58;98559.28;;;4.98;73.88
63568;BME280;49715;42.386;20.434;2023-01-04T14:30:46;98541.50;;;4.89;74.08
63568;BME280;49715;42.386;20.434;2023-01-04T14:33:14;98552.34;;;4.97;74.15
63568;BME280;49715;42.386;20.434;2023-01-04T14:35:42;98559.00;;;5.03;73.99
63568;BME280;49715;42.386;20.434;2023-01-04T14:38:16;98559.00;;;5.03;73.95
63568;BME280;49715;42.386;20.434;2023-01-04T14:40:44;98547.03;;;4.99;74.03
63568;BME280;49715;42.386;20.434;2023-01-04T14:43:34;98547.88;;;4.99;73.85
63568;BME280;49715;42.386;20.434;2023-01-04T14:46:01;98548.81;;;4.98;74.07
63568;BME280;49715;42.386;20.434;2023-01-04T14:48:29;98541.97;;;4.96;74.12
63568;BME280;49715;42.386;20.434;2023-01-04T14:50:57;98537.69;;;4.95;73.95
63568;BME280;49715;42.386;20.434;2023-01-04T14:53:24;98541.16;;;4.95;74.11
63568;BME280;49715;42.386;20.434;2023-01-04T14:55:51;98542.25;;;4.91;74.14
63568;BME280;49715;42.386;20.434;2023-01-04T14:58:20;98550.91;;;4.91;74.06
63568;BME280;49715;42.386;20.434;2023-01-04T15:00:50;98522.13;;;4.77;74.28
63568;BME280;49715;42.386;20.434;2023-01-04T15:03:16;98548.25;;;4.93;74.36
63568;BME280;49715;42.386;20.434;2023-01-04T15:05:45;98540.22;;;4.96;74.09
63568;BME280;49715;42.386;20.434;2023-01-04T15:08:15;98534.50;;;4.89;74.10
63568;BME280;49715;42.386;20.434;2023-01-04T15:10:43;98544.69;;;4.94;74.22
63568;BME280;49715;42.386;20.434;2023-01-04T15:13:12;98541.50;;;4.89;74.28
63568;BME280;49715;42.386;20.434;2023-01-04T15:15:43;98541.25;;;4.78;74.80
63568;BME280;49715;42.386;20.434;2023-01-04T15:18:15;98537.63;;;4.80;74.50
63568;BME280;49715;42.386;20.434;2023-01-04T15:20:42;98540.16;;;4.82;74.21
63568;BME280;49715;42.386;20.434;2023-01-04T15:23:08;98540.25;;;4.80;74.66
63568;BME280;49715;42.386;20.434;2023-01-04T15:25:39;98537.47;;;4.83;74.15
63568;BME280;49715;42.386;20.434;2023-01-04T15:28:06;98547.16;;;4.81;74.13
63568;BME280;49715;42.386;20.434;2023-01-04T15:30:33;98546.31;;;4.81;74.11